sensor_id;sensor_type;location;lat;lon;timestamp;temperature;humidity
3846;DHT22;1938;50.812;7.738;2023-05-14T00:00:50;9.10;97.90
3846;DHT22;1938;50.812;7.738;2023-05-14T00:03:15;9.10;99.90
3846;DHT22;1938;50.812;7.738;2023-05-14T00:05:41;9.10;99.90
3846;DHT22;1938;50.812;7.738;2023-05-14T00:08:06;9.10;99.90
3846;DHT22;1938;50.812;7.738;2023-05-14T00:10:32;9.10;99.90
3846;DHT22;1938;50.812;7.738;2023-05-14T00:12:57;9.10;99.90
3846;DHT22;1938;50.812;7.738;2023-05-14T00:15:23;9.10;99.90
3846;DHT22;1938;50.812;7.738;2023-05-14T00:17:49;9.10;99.90
3846;DHT22;1938;50.812;7.738;2023-05-14T00:20:14;9.10;99.90
3846;DHT22;1938;50.812;7.738;2023-05-14T00:22:40;9.00;99.90
3846;DHT22;1938;50.812;7.738;2023-05-14T00:25:07;8.90;99.90
3846;DHT22;1938;50.812;7.738;2023-05-14T00:27:33;9.00;99.90
3846;DHT22;1938;50.812;7.738;2023-05-14T00:29:59;8.90;99.90
3846;DHT22;1938;50.812;7.738;2023-05-14T00:32:24;8.90;99.90
3846;DHT22;1938;50.812;7.738;2023-05-14T00:34:50;8.80;99.90
3846;DHT22;1938;50.812;7.738;2023-05-14T00:37:16;8.80;99.90
3846;DHT22;1938;50.812;7.738;2023-05-14T00:39:41;8.70;99.90
3846;DHT22;1938;50.812;7.738;2023-05-14T00:42:07;8.70;99.90
3846;DHT22;1938;50.812;7.738;2023-05-14T00:44:32;8.60;99.90
3846;DHT22;1938;50.812;7.738;2023-05-14T00:46:58;8.50;99.90
3846;DHT22;1938;50.812;7.738;2023-05-14T00:49:24;8.60;99.90
3846;DHT22;1938;50.812;7.738;2023-05-14T00:51:51;8.60;99.90
3846;DHT22;1938;50.812;7.738;2023-05-14T00:54:17;8.60;99.90
3846;DHT22;1938;50.812;7.738;2023-05-14T00:56:44;8.60;99.90
3846;DHT22;1938;50.812;7.738;2023-05-14T00:59:10;8.60;99.90
3846;DHT22;1938;50.812;7.738;2023-05-14T01:01:36;8.70;99.90
3846;DHT22;1938;50.812;7.738;2023-05-14T01:04:02;8.70;99.90
3846;DHT22;1938;50.812;7.738;2023-05-14T01:06:46;8.70;99.90
3846;DHT22;1938;50.812;7.738;2023-05-14T01:09:31;8.70;99.90
3846;DHT22;1938;50.812;7.738;2023-05-14T01:12:20;8.70;99.90
3846;DHT22;1938;50.812;7.738;2023-05-14T01:15:10;8.60;99.90
3846;DHT22;1938;50.812;7.738;2023-05-14T01:17:49;8.30;99.90
3846;DHT22;1938;50.812;7.738;2023-05-14T01:20:15;8.30;99.90
3846;DHT22;1938;50.812;7.738;2023-05-14T01:22:41;8.20;99.90
3846;DHT22;1938;50.812;7.738;2023-05-14T01:25:07;8.20;99.90
3846;DHT22;1938;50.812;7.738;2023-05-14T01:27:49;8.20;99.90
3846;DHT22;1938;50.812;7.738;2023-05-14T01:30:31;8.10;99.90
3846;DHT22;1938;50.812;7.738;2023-05-14T01:33:00;8.20;99.90
3846;DHT22;1938;50.812;7.738;2023-05-14T01:35:29;8.10;99.90
3846;DHT22;1938;50.812;7.738;2023-05-14T01:37:56;8.10;99.90
3846;DHT22;1938;50.812;7.738;2023-05-14T01:40:23;8.10;99.90
3846;DHT22;1938;50.812;7.738;2023-05-14T01:42:49;8.10;99.90
3846;DHT22;1938;50.812;7.738;2023-05-14T01:45:21;8.10;99.90
3846;DHT22;1938;50.812;7.738;2023-05-14T01:47:47;8.10;99.90
3846;DHT22;1938;50.812;7.738;2023-05-14T01:50:14;8.10;99.90
3846;DHT22;1938;50.812;7.738;2023-05-14T01:52:40;8.10;99.90
3846;DHT22;1938;50.812;7.738;2023-05-14T01:55:06;8.10;99.90
3846;DHT22;1938;50.812;7.738;2023-05-14T01:57:31;8.20;99.90
3846;DHT22;1938;50.812;7.738;2023-05-14T01:59:57;8.20;99.90
3846;DHT22;1938;50.812;7.738;2023-05-14T02:02:22;8.20;99.90
3846;DHT22;1938;50.812;7.738;2023-05-14T02:04:48;8.20;99.90
3846;DHT22;1938;50.812;7.738;2023-05-14T02:07:14;8.20;99.90
3846;DHT22;1938;50.812;7.738;2023-05-14T02:09:39;8.20;99.90
3846;DHT22;1938;50.812;7.738;2023-05-14T02:12:06;8.20;99.90
3846;DHT22;1938;50.812;7.738;2023-05-14T02:14:32;8.20;99.90
3846;DHT22;1938;50.812;7.738;2023-05-14T02:16:57;8.20;99.90
3846;DHT22;1938;50.812;7.738;2023-05-14T02:19:24;8.10;99.90
3846;DHT22;1938;50.812;7.738;2023-05-14T02:21:50;8.20;99.90
3846;DHT22;1938;50.812;7.738;2023-05-14T02:24:15;8.10;99.90
3846;DHT22;1938;50.812;7.738;2023-05-14T02:26:41;8.10;99.90
3846;DHT22;1938;50.812;7.738;2023-05-14T02:29:07;8.10;99.90
3846;DHT22;1938;50.812;7.738;2023-05-14T02:31:32;8.10;99.90
3846;DHT22;1938;50.812;7.738;2023-05-14T02:33:59;8.10;99.90
3846;DHT22;1938;50.812;7.738;2023-05-14T02:36:25;8.10;99.90
3846;DHT22;1938;50.812;7.738;2023-05-14T02:38:50;8.00;99.90
3846;DHT22;1938;50.812;7.738;2023-05-14T02:41:16;8.00;99.90
3846;DHT22;1938;50.812;7.738;2023-05-14T02:43:41;8.10;99.90
3846;DHT22;1938;50.812;7.738;2023-05-14T02:46:07;8.20;99.90
3846;DHT22;1938;50.812;7.738;2023-05-14T02:48:32;8.20;99.90
3846;DHT22;1938;50.812;7.738;2023-05-14T02:50:59;8.20;99.90
3846;DHT22;1938;50.812;7.738;2023-05-14T02:53:24;8.20;99.90
3846;DHT22;1938;50.812;7.738;2023-05-14T02:55:50;8.10;99.90
3846;DHT22;1938;50.812;7.738;2023-05-14T02:58:15;8.10;99.90
3846;DHT22;1938;50.812;7.738;2023-05-14T03:00:41;8.10;99.90
3846;DHT22;1938;50.812;7.738;2023-05-14T03:03:06;8.10;99.90
3846;DHT22;1938;50.812;7.738;2023-05-14T03:05:32;7.90;99.90
3846;DHT22;1938;50.812;7.738;2023-05-14T03:07:57;7.90;99.90
3846;DHT22;1938;50.812;7.738;2023-05-14T03:10:23;7.90;99.90
3846;DHT22;1938;50.812;7.738;2023-05-14T03:12:49;7.80;99.90
3846;DHT22;1938;50.812;7.738;2023-05-14T03:15:18;7.80;99.90
3846;DHT22;1938;50.812;7.738;2023-05-14T03:17:44;7.90;99.90
3846;DHT22;1938;50.812;7.738;2023-05-14T03:20:10;8.00;99.90
3846;DHT22;1938;50.812;7.738;2023-05-14T03:22:36;8.10;99.90
3846;DHT22;1938;50.812;7.738;2023-05-14T03:25:02;8.20;99.90
3846;DHT22;1938;50.812;7.738;2023-05-14T03:27:27;8.10;99.90
3846;DHT22;1938;50.812;7.738;2023-05-14T03:29:53;8.20;99.90
3846;DHT22;1938;50.812;7.738;2023-05-14T03:32:19;8.00;99.90
3846;DHT22;1938;50.812;7.738;2023-05-14T03:34:45;8.00;99.90
3846;DHT22;1938;50.812;7.738;2023-05-14T03:37:11;7.90;99.90
3846;DHT22;1938;50.812;7.738;2023-05-14T03:39:36;7.90;99.90
3846;DHT22;1938;50.812;7.738;2023-05-14T03:42:02;7.90;99.90
3846;DHT22;1938;50.812;7.738;2023-05-14T03:44:28;7.80;99.90
3846;DHT22;1938;50.812;7.738;2023-05-14T03:46:53;7.90;99.90
3846;DHT22;1938;50.812;7.738;2023-05-14T03:49:19;7.90;99.90
3846;DHT22;1938;50.812;7.738;2023-05-14T03:51:44;7.90;99.90
3846;DHT22;1938;50.812;7.738;2023-05-14T03:54:10;7.90;99.90
3846;DHT22;1938;50.812;7.738;2023-05-14T03:56:35;7.90;99.90
3846;DHT22;1938;50.812;7.738;2023-05-14T03:59:01;7.80;99.90
3846;DHT22;1938;50.812;7.738;2023-05-14T04:01:29;7.70;99.90
3846;DHT22;1938;50.812;7.738;2023-05-14T04:03:55;7.70;99.90
3846;DHT22;1938;50.812;7.738;2023-05-14T04:06:20;7.60;99.90
3846;DHT22;1938;50.812;7.738;2023-05-14T04:08:46;7.50;99.90
3846;DHT22;1938;50.812;7.738;2023-05-14T04:11:12;7.70;99.90
3846;DHT22;1938;50.812;7.738;2023-05-14T04:13:37;7.70;99.90
3846;DHT22;1938;50.812;7.738;2023-05-14T04:16:03;7.70;99.90
3846;DHT22;1938;50.812;7.738;2023-05-14T04:18:28;7.80;99.90
3846;DHT22;1938;50.812;7.738;2023-05-14T04:20:55;7.90;99.90
3846;DHT22;1938;50.812;7.738;2023-05-14T04:23:20;8.20;99.90
3846;DHT22;1938;50.812;7.738;2023-05-14T04:25:46;9.60;1.00
3846;DHT22;1938;50.812;7.738;2023-05-14T04:28:12;11.20;32.10
3846;DHT22;1938;50.812;7.738;2023-05-14T04:30:37;12.70;99.90
3846;DHT22;1938;50.812;7.738;2023-05-14T04:33:03;12.80;1.00
3846;DHT22;1938;50.812;7.738;2023-05-14T04:35:28;12.60;1.00
3846;DHT22;1938;50.812;7.738;2023-05-14T04:37:54;13.50;1.00
3846;DHT22;1938;50.812;7.738;2023-05-14T04:40:19;14.20;99.90
3846;DHT22;1938;50.812;7.738;2023-05-14T04:42:45;14.90;99.90
3846;DHT22;1938;50.812;7.738;2023-05-14T04:45:10;15.50;99.90
3846;DHT22;1938;50.812;7.738;2023-05-14T04:47:37;15.50;99.90
3846;DHT22;1938;50.812;7.738;2023-05-14T04:50:03;17.00;99.90
3846;DHT22;1938;50.812;7.738;2023-05-14T04:52:29;17.60;99.90
3846;DHT22;1938;50.812;7.738;2023-05-14T04:54:54;17.10;99.90
3846;DHT22;1938;50.812;7.738;2023-05-14T04:57:21;17.60;99.90
3846;DHT22;1938;50.812;7.738;2023-05-14T04:59:46;18.10;99.90
3846;DHT22;1938;50.812;7.738;2023-05-14T05:02:12;18.00;99.90
3846;DHT22;1938;50.812;7.738;2023-05-14T05:04:37;18.80;99.90
3846;DHT22;1938;50.812;7.738;2023-05-14T05:07:03;20.20;99.90
3846;DHT22;1938;50.812;7.738;2023-05-14T05:09:31;21.30;99.90
3846;DHT22;1938;50.812;7.738;2023-05-14T05:11:56;22.90;99.90
3846;DHT22;1938;50.812;7.738;2023-05-14T05:14:22;24.30;99.90
3846;DHT22;1938;50.812;7.738;2023-05-14T05:16:47;22.90;99.90
3846;DHT22;1938;50.812;7.738;2023-05-14T05:19:13;23.80;99.90
3846;DHT22;1938;50.812;7.738;2023-05-14T05:21:38;24.70;99.90
3846;DHT22;1938;50.812;7.738;2023-05-14T05:24:06;25.30;99.90
3846;DHT22;1938;50.812;7.738;2023-05-14T05:26:31;25.50;99.90
3846;DHT22;1938;50.812;7.738;2023-05-14T05:29:07;26.60;99.90
3846;DHT22;1938;50.812;7.738;2023-05-14T05:31:33;27.30;99.90
3846;DHT22;1938;50.812;7.738;2023-05-14T05:33:59;28.40;99.90
3846;DHT22;1938;50.812;7.738;2023-05-14T05:36:25;28.80;99.90
3846;DHT22;1938;50.812;7.738;2023-05-14T05:38:51;30.20;99.90
3846;DHT22;1938;50.812;7.738;2023-05-14T05:41:17;30.80;99.90
3846;DHT22;1938;50.812;7.738;2023-05-14T05:43:46;31.40;99.90
3846;DHT22;1938;50.812;7.738;2023-05-14T05:46:11;31.10;99.90
3846;DHT22;1938;50.812;7.738;2023-05-14T05:48:37;30.80;99.90
3846;DHT22;1938;50.812;7.738;2023-05-14T05:51:02;30.80;99.90
3846;DHT22;1938;50.812;7.738;2023-05-14T05:53:28;29.60;99.90
3846;DHT22;1938;50.812;7.738;2023-05-14T05:55:54;30.80;99.90
3846;DHT22;1938;50.812;7.738;2023-05-14T05:58:21;31.40;99.90
3846;DHT22;1938;50.812;7.738;2023-05-14T06:00:46;31.50;99.90
3846;DHT22;1938;50.812;7.738;2023-05-14T06:03:12;32.60;99.90
3846;DHT22;1938;50.812;7.738;2023-05-14T06:05:38;32.10;99.90
3846;DHT22;1938;50.812;7.738;2023-05-14T06:08:04;32.90;99.90
3846;DHT22;1938;50.812;7.738;2023-05-14T06:10:30;33.20;99.90
3846;DHT22;1938;50.812;7.738;2023-05-14T06:12:55;34.00;99.90
3846;DHT22;1938;50.812;7.738;2023-05-14T06:15:21;34.30;99.90
3846;DHT22;1938;50.812;7.738;2023-05-14T06:17:47;35.00;99.90
3846;DHT22;1938;50.812;7.738;2023-05-14T06:20:13;36.90;99.90
3846;DHT22;1938;50.812;7.738;2023-05-14T06:22:38;38.50;99.90
3846;DHT22;1938;50.812;7.738;2023-05-14T06:25:05;39.20;99.90
3846;DHT22;1938;50.812;7.738;2023-05-14T06:27:31;39.40;99.90
3846;DHT22;1938;50.812;7.738;2023-05-14T06:29:56;38.00;99.90
3846;DHT22;1938;50.812;7.738;2023-05-14T06:32:22;35.90;99.90
3846;DHT22;1938;50.812;7.738;2023-05-14T06:34:47;33.80;99.90
3846;DHT22;1938;50.812;7.738;2023-05-14T06:37:13;31.50;99.90
3846;DHT22;1938;50.812;7.738;2023-05-14T06:39:39;29.80;99.90
3846;DHT22;1938;50.812;7.738;2023-05-14T06:42:05;28.10;86.50
3846;DHT22;1938;50.812;7.738;2023-05-14T06:44:31;29.30;87.10
3846;DHT22;1938;50.812;7.738;2023-05-14T06:46:57;29.90;96.20
3846;DHT22;1938;50.812;7.738;2023-05-14T06:49:22;29.40;84.50
3846;DHT22;1938;50.812;7.738;2023-05-14T06:51:48;28.30;64.80
3846;DHT22;1938;50.812;7.738;2023-05-14T06:54:13;27.80;50.00
3846;DHT22;1938;50.812;7.738;2023-05-14T06:56:39;28.10;50.50
3846;DHT22;1938;50.812;7.738;2023-05-14T06:59:04;27.00;36.80
3846;DHT22;1938;50.812;7.738;2023-05-14T07:01:30;27.70;38.20
3846;DHT22;1938;50.812;7.738;2023-05-14T07:03:56;28.50;43.90
3846;DHT22;1938;50.812;7.738;2023-05-14T07:06:22;29.00;48.80
3846;DHT22;1938;50.812;7.738;2023-05-14T07:08:47;29.60;56.20
3846;DHT22;1938;50.812;7.738;2023-05-14T07:11:13;29.70;52.30
3846;DHT22;1938;50.812;7.738;2023-05-14T07:13:40;31.00;68.30
3846;DHT22;1938;50.812;7.738;2023-05-14T07:16:07;31.40;75.30
3846;DHT22;1938;50.812;7.738;2023-05-14T07:18:35;28.90;50.70
3846;DHT22;1938;50.812;7.738;2023-05-14T07:21:00;29.00;38.40
3846;DHT22;1938;50.812;7.738;2023-05-14T07:23:26;29.50;42.40
3846;DHT22;1938;50.812;7.738;2023-05-14T07:25:52;28.70;35.70
3846;DHT22;1938;50.812;7.738;2023-05-14T07:28:18;28.30;26.90
3846;DHT22;1938;50.812;7.738;2023-05-14T07:30:44;28.30;23.70
3846;DHT22;1938;50.812;7.738;2023-05-14T07:33:09;29.30;29.50
3846;DHT22;1938;50.812;7.738;2023-05-14T07:35:35;29.40;30.00
3846;DHT22;1938;50.812;7.738;2023-05-14T07:38:00;29.70;31.10
3846;DHT22;1938;50.812;7.738;2023-05-14T07:40:26;31.20;43.30
3846;DHT22;1938;50.812;7.738;2023-05-14T07:42:51;32.10;52.90
3846;DHT22;1938;50.812;7.738;2023-05-14T07:45:17;31.10;41.80
3846;DHT22;1938;50.812;7.738;2023-05-14T07:47:42;31.30;44.40
3846;DHT22;1938;50.812;7.738;2023-05-14T07:50:08;29.90;27.90
3846;DHT22;1938;50.812;7.738;2023-05-14T07:52:34;29.60;23.70
3846;DHT22;1938;50.812;7.738;2023-05-14T07:55:01;28.70;15.60
3846;DHT22;1938;50.812;7.738;2023-05-14T07:57:27;28.90;13.00
3846;DHT22;1938;50.812;7.738;2023-05-14T07:59:53;28.40;9.70
3846;DHT22;1938;50.812;7.738;2023-05-14T08:02:19;27.60;1.00
3846;DHT22;1938;50.812;7.738;2023-05-14T08:04:45;26.90;1.00
3846;DHT22;1938;50.812;7.738;2023-05-14T08:07:10;27.30;1.00
3846;DHT22;1938;50.812;7.738;2023-05-14T08:09:36;27.90;1.00
3846;DHT22;1938;50.812;7.738;2023-05-14T08:12:02;28.70;2.70
3846;DHT22;1938;50.812;7.738;2023-05-14T08:14:27;28.80;3.70
3846;DHT22;1938;50.812;7.738;2023-05-14T08:16:53;29.50;6.90
3846;DHT22;1938;50.812;7.738;2023-05-14T08:19:18;30.10;11.40
3846;DHT22;1938;50.812;7.738;2023-05-14T08:21:44;30.70;15.40
3846;DHT22;1938;50.812;7.738;2023-05-14T08:24:10;31.20;18.10
3846;DHT22;1938;50.812;7.738;2023-05-14T08:26:36;32.00;23.10
3846;DHT22;1938;50.812;7.738;2023-05-14T08:29:03;31.40;20.90
3846;DHT22;1938;50.812;7.738;2023-05-14T08:31:28;30.70;12.50
3846;DHT22;1938;50.812;7.738;2023-05-14T08:33:54;31.60;16.90
3846;DHT22;1938;50.812;7.738;2023-05-14T08:36:20;30.20;9.10
3846;DHT22;1938;50.812;7.738;2023-05-14T08:38:45;28.40;1.00
3846;DHT22;1938;50.812;7.738;2023-05-14T08:41:11;27.70;1.00
3846;DHT22;1938;50.812;7.738;2023-05-14T08:46:29;25.20;1.00
3846;DHT22;1938;50.812;7.738;2023-05-14T08:48:59;25.50;1.00
3846;DHT22;1938;50.812;7.738;2023-05-14T08:51:26;26.20;1.00
3846;DHT22;1938;50.812;7.738;2023-05-14T08:53:52;26.90;1.00
3846;DHT22;1938;50.812;7.738;2023-05-14T08:56:18;27.80;1.00
3846;DHT22;1938;50.812;7.738;2023-05-14T08:58:43;28.40;1.00
3846;DHT22;1938;50.812;7.738;2023-05-14T09:01:09;26.50;1.00
3846;DHT22;1938;50.812;7.738;2023-05-14T09:03:35;26.40;1.00
3846;DHT22;1938;50.812;7.738;2023-05-14T09:06:01;25.30;1.00
3846;DHT22;1938;50.812;7.738;2023-05-14T09:08:28;25.30;1.00
3846;DHT22;1938;50.812;7.738;2023-05-14T09:10:54;26.50;1.00
3846;DHT22;1938;50.812;7.738;2023-05-14T09:13:19;27.90;1.00
3846;DHT22;1938;50.812;7.738;2023-05-14T09:15:45;28.80;1.00
3846;DHT22;1938;50.812;7.738;2023-05-14T09:18:12;28.60;1.00
3846;DHT22;1938;50.812;7.738;2023-05-14T09:20:38;29.20;1.00
3846;DHT22;1938;50.812;7.738;2023-05-14T09:23:03;30.10;1.00
3846;DHT22;1938;50.812;7.738;2023-05-14T09:25:30;29.80;1.00
3846;DHT22;1938;50.812;7.738;2023-05-14T09:27:56;28.90;1.00
3846;DHT22;1938;50.812;7.738;2023-05-14T09:30:23;28.50;1.00
3846;DHT22;1938;50.812;7.738;2023-05-14T09:32:52;28.50;1.00
3846;DHT22;1938;50.812;7.738;2023-05-14T09:35:22;27.60;1.00
3846;DHT22;1938;50.812;7.738;2023-05-14T09:37:50;26.50;1.00
3846;DHT22;1938;50.812;7.738;2023-05-14T09:40:17;25.80;1.00
3846;DHT22;1938;50.812;7.738;2023-05-14T09:42:43;26.00;1.00
3846;DHT22;1938;50.812;7.738;2023-05-14T09:45:10;25.90;1.00
3846;DHT22;1938;50.812;7.738;2023-05-14T09:47:37;25.90;1.00
3846;DHT22;1938;50.812;7.738;2023-05-14T09:50:03;25.70;1.00
3846;DHT22;1938;50.812;7.738;2023-05-14T09:52:29;24.40;1.00
3846;DHT22;1938;50.812;7.738;2023-05-14T09:54:55;23.60;1.00
3846;DHT22;1938;50.812;7.738;2023-05-14T09:57:21;23.40;1.00
3846;DHT22;1938;50.812;7.738;2023-05-14T09:59:47;23.10;1.00
3846;DHT22;1938;50.812;7.738;2023-05-14T10:02:22;22.80;1.00
3846;DHT22;1938;50.812;7.738;2023-05-14T10:04:50;22.90;1.00
3846;DHT22;1938;50.812;7.738;2023-05-14T10:07:21;22.70;1.00
3846;DHT22;1938;50.812;7.738;2023-05-14T10:09:55;22.50;1.00
3846;DHT22;1938;50.812;7.738;2023-05-14T10:12:22;22.70;1.00
3846;DHT22;1938;50.812;7.738;2023-05-14T10:14:49;22.80;1.00
3846;DHT22;1938;50.812;7.738;2023-05-14T10:17:20;22.50;1.00
3846;DHT22;1938;50.812;7.738;2023-05-14T10:19:56;22.30;1.00
3846;DHT22;1938;50.812;7.738;2023-05-14T10:22:23;22.30;1.00
3846;DHT22;1938;50.812;7.738;2023-05-14T10:24:51;22.80;1.00
3846;DHT22;1938;50.812;7.738;2023-05-14T10:27:19;23.00;1.00
3846;DHT22;1938;50.812;7.738;2023-05-14T10:29:52;23.40;1.00
3846;DHT22;1938;50.812;7.738;2023-05-14T10:32:24;23.40;1.00
3846;DHT22;1938;50.812;7.738;2023-05-14T10:34:51;22.90;1.00
3846;DHT22;1938;50.812;7.738;2023-05-14T10:37:26;22.70;1.00
3846;DHT22;1938;50.812;7.738;2023-05-14T10:40:01;22.80;1.00
3846;DHT22;1938;50.812;7.738;2023-05-14T10:42:36;23.00;1.00
3846;DHT22;1938;50.812;7.738;2023-05-14T10:45:06;23.20;1.00
3846;DHT22;1938;50.812;7.738;2023-05-14T10:47:40;23.40;1.00
3846;DHT22;1938;50.812;7.738;2023-05-14T10:50:09;23.40;1.00
3846;DHT22;1938;50.812;7.738;2023-05-14T10:52:35;23.40;1.00
3846;DHT22;1938;50.812;7.738;2023-05-14T10:55:05;23.30;1.00
3846;DHT22;1938;50.812;7.738;2023-05-14T10:57:35;23.10;1.00
3846;DHT22;1938;50.812;7.738;2023-05-14T11:00:02;23.00;1.00
3846;DHT22;1938;50.812;7.738;2023-05-14T11:02:32;23.10;1.00
3846;DHT22;1938;50.812;7.738;2023-05-14T11:05:06;23.00;1.00
3846;DHT22;1938;50.812;7.738;2023-05-14T11:07:34;23.00;1.00
3846;DHT22;1938;50.812;7.738;2023-05-14T11:10:09;22.90;1.00
3846;DHT22;1938;50.812;7.738;2023-05-14T11:12:40;22.90;1.00
3846;DHT22;1938;50.812;7.738;2023-05-14T11:15:19;23.10;1.00
3846;DHT22;1938;50.812;7.738;2023-05-14T11:17:46;23.10;1.00
3846;DHT22;1938;50.812;7.738;2023-05-14T11:20:13;23.10;1.00
3846;DHT22;1938;50.812;7.738;2023-05-14T11:22:40;23.00;1.00
3846;DHT22;1938;50.812;7.738;2023-05-14T11:25:07;23.10;1.00
3846;DHT22;1938;50.812;7.738;2023-05-14T11:27:34;22.90;1.00
3846;DHT22;1938;50.812;7.738;2023-05-14T11:30:00;22.80;1.00
3846;DHT22;1938;50.812;7.738;2023-05-14T11:32:26;22.70;1.00
3846;DHT22;1938;50.812;7.738;2023-05-14T11:34:52;22.60;1.00
3846;DHT22;1938;50.812;7.738;2023-05-14T11:37:17;22.70;1.00
3846;DHT22;1938;50.812;7.738;2023-05-14T11:40:07;22.60;1.00
3846;DHT22;1938;50.812;7.738;2023-05-14T11:42:35;22.60;1.00
3846;DHT22;1938;50.812;7.738;2023-05-14T11:45:01;22.50;1.00
3846;DHT22;1938;50.812;7.738;2023-05-14T11:47:28;22.40;1.00
3846;DHT22;1938;50.812;7.738;2023-05-14T11:49:56;22.50;1.00
3846;DHT22;1938;50.812;7.738;2023-05-14T11:52:21;22.40;1.00
3846;DHT22;1938;50.812;7.738;2023-05-14T11:54:47;22.30;1.00
3846;DHT22;1938;50.812;7.738;2023-05-14T11:57:18;22.40;1.00
3846;DHT22;1938;50.812;7.738;2023-05-14T11:59:44;22.60;1.00
3846;DHT22;1938;50.812;7.738;2023-05-14T12:02:12;22.60;1.00
3846;DHT22;1938;50.812;7.738;2023-05-14T12:04:38;22.70;1.00
3846;DHT22;1938;50.812;7.738;2023-05-14T12:07:13;23.00;1.00
3846;DHT22;1938;50.812;7.738;2023-05-14T12:09:41;23.30;1.00
3846;DHT22;1938;50.812;7.738;2023-05-14T12:12:10;23.20;1.00
3846;DHT22;1938;50.812;7.738;2023-05-14T12:14:38;23.50;1.00
3846;DHT22;1938;50.812;7.738;2023-05-14T12:17:16;23.80;1.00
3846;DHT22;1938;50.812;7.738;2023-05-14T12:19:43;24.00;1.00
3846;DHT22;1938;50.812;7.738;2023-05-14T12:22:14;24.10;1.00
3846;DHT22;1938;50.812;7.738;2023-05-14T12:24:40;24.10;1.00
3846;DHT22;1938;50.812;7.738;2023-05-14T12:27:08;24.20;1.00
3846;DHT22;1938;50.812;7.738;2023-05-14T12:29:36;23.60;1.00
3846;DHT22;1938;50.812;7.738;2023-05-14T12:32:07;23.40;1.00
3846;DHT22;1938;50.812;7.738;2023-05-14T12:34:34;23.20;1.00
3846;DHT22;1938;50.812;7.738;2023-05-14T12:37:00;23.00;1.00
3846;DHT22;1938;50.812;7.738;2023-05-14T12:39:25;22.80;1.00
3846;DHT22;1938;50.812;7.738;2023-05-14T12:41:51;22.70;1.00
3846;DHT22;1938;50.812;7.738;2023-05-14T12:44:17;22.60;1.00
3846;DHT22;1938;50.812;7.738;2023-05-14T12:46:43;22.40;1.00
3846;DHT22;1938;50.812;7.738;2023-05-14T12:49:08;22.20;1.00
3846;DHT22;1938;50.812;7.738;2023-05-14T12:51:34;22.20;1.00
3846;DHT22;1938;50.812;7.738;2023-05-14T12:53:59;22.10;1.00
3846;DHT22;1938;50.812;7.738;2023-05-14T12:56:25;21.90;1.00
3846;DHT22;1938;50.812;7.738;2023-05-14T12:58:54;21.80;1.00
3846;DHT22;1938;50.812;7.738;2023-05-14T13:01:19;21.20;1.00
3846;DHT22;1938;50.812;7.738;2023-05-14T13:03:46;20.60;1.00
3846;DHT22;1938;50.812;7.738;2023-05-14T13:06:12;20.20;1.00
3846;DHT22;1938;50.812;7.738;2023-05-14T13:08:38;20.00;1.00
3846;DHT22;1938;50.812;7.738;2023-05-14T13:11:03;19.30;1.00
3846;DHT22;1938;50.812;7.738;2023-05-14T13:13:29;19.50;1.00
3846;DHT22;1938;50.812;7.738;2023-05-14T13:15:54;19.80;1.00
3846;DHT22;1938;50.812;7.738;2023-05-14T13:18:20;20.00;1.00
3846;DHT22;1938;50.812;7.738;2023-05-14T13:20:46;20.30;1.00
3846;DHT22;1938;50.812;7.738;2023-05-14T13:23:12;20.50;1.00
3846;DHT22;1938;50.812;7.738;2023-05-14T13:25:37;20.80;1.00
3846;DHT22;1938;50.812;7.738;2023-05-14T13:28:03;21.10;1.00
3846;DHT22;1938;50.812;7.738;2023-05-14T13:30:29;21.40;1.00
3846;DHT22;1938;50.812;7.738;2023-05-14T13:32:56;21.50;1.00
3846;DHT22;1938;50.812;7.738;2023-05-14T13:35:23;21.70;1.00
3846;DHT22;1938;50.812;7.738;2023-05-14T13:37:48;21.80;1.00
3846;DHT22;1938;50.812;7.738;2023-05-14T13:40:15;22.00;1.00
3846;DHT22;1938;50.812;7.738;2023-05-14T13:42:41;22.30;1.00
3846;DHT22;1938;50.812;7.738;2023-05-14T13:45:07;22.50;1.00
3846;DHT22;1938;50.812;7.738;2023-05-14T13:47:33;22.70;1.00
3846;DHT22;1938;50.812;7.738;2023-05-14T13:49:58;22.70;1.00
3846;DHT22;1938;50.812;7.738;2023-05-14T13:52:24;22.90;1.00
3846;DHT22;1938;50.812;7.738;2023-05-14T13:54:50;22.90;1.00
3846;DHT22;1938;50.812;7.738;2023-05-14T13:57:17;22.90;1.00
3846;DHT22;1938;50.812;7.738;2023-05-14T13:59:45;22.80;1.00
3846;DHT22;1938;50.812;7.738;2023-05-14T14:02:10;22.50;1.00
3846;DHT22;1938;50.812;7.738;2023-05-14T14:04:36;22.20;1.00
3846;DHT22;1938;50.812;7.738;2023-05-14T14:07:02;21.90;1.00
3846;DHT22;1938;50.812;7.738;2023-05-14T14:09:27;21.50;1.00
3846;DHT22;1938;50.812;7.738;2023-05-14T14:11:53;21.30;1.00
3846;DHT22;1938;50.812;7.738;2023-05-14T14:14:18;21.40;1.00
3846;DHT22;1938;50.812;7.738;2023-05-14T14:16:45;21.60;1.00
3846;DHT22;1938;50.812;7.738;2023-05-14T14:19:10;21.80;1.00
3846;DHT22;1938;50.812;7.738;2023-05-14T14:21:36;22.00;1.00
3846;DHT22;1938;50.812;7.738;2023-05-14T14:24:04;22.10;1.00
3846;DHT22;1938;50.812;7.738;2023-05-14T14:26:30;22.30;1.00
3846;DHT22;1938;50.812;7.738;2023-05-14T14:28:56;22.30;1.00
3846;DHT22;1938;50.812;7.738;2023-05-14T14:31:21;21.40;1.00
3846;DHT22;1938;50.812;7.738;2023-05-14T14:33:47;21.10;1.00
3846;DHT22;1938;50.812;7.738;2023-05-14T14:36:12;20.90;1.00
3846;DHT22;1938;50.812;7.738;2023-05-14T14:38:38;20.50;1.00
3846;DHT22;1938;50.812;7.738;2023-05-14T14:41:04;20.30;1.00
3846;DHT22;1938;50.812;7.738;2023-05-14T14:43:32;20.20;1.00
3846;DHT22;1938;50.812;7.738;2023-05-14T14:45:58;20.00;1.00
3846;DHT22;1938;50.812;7.738;2023-05-14T14:48:29;19.90;1.00
3846;DHT22;1938;50.812;7.738;2023-05-14T14:50:56;19.80;1.00
3846;DHT22;1938;50.812;7.738;2023-05-14T14:53:23;19.70;1.00
3846;DHT22;1938;50.812;7.738;2023-05-14T14:55:49;19.60;1.00
3846;DHT22;1938;50.812;7.738;2023-05-14T14:58:17;19.60;1.00
3846;DHT22;1938;50.812;7.738;2023-05-14T15:00:43;19.50;1.00
3846;DHT22;1938;50.812;7.738;2023-05-14T15:03:10;19.40;1.00
3846;DHT22;1938;50.812;7.738;2023-05-14T15:05:35;19.50;1.00
3846;DHT22;1938;50.812;7.738;2023-05-14T15:08:01;19.50;1.00
3846;DHT22;1938;50.812;7.738;2023-05-14T15:10:27;19.60;1.00
3846;DHT22;1938;50.812;7.738;2023-05-14T15:12:55;19.60;1.00
3846;DHT22;1938;50.812;7.738;2023-05-14T15:15:21;19.60;1.00
3846;DHT22;1938;50.812;7.738;2023-05-14T15:17:47;19.60;1.00
3846;DHT22;1938;50.812;7.738;2023-05-14T15:20:12;19.80;1.00
3846;DHT22;1938;50.812;7.738;2023-05-14T15:22:38;19.80;1.00
3846;DHT22;1938;50.812;7.738;2023-05-14T15:25:04;19.80;1.00
3846;DHT22;1938;50.812;7.738;2023-05-14T15:27:29;19.90;1.00
3846;DHT22;1938;50.812;7.738;2023-05-14T15:29:55;19.90;1.00
3846;DHT22;1938;50.812;7.738;2023-05-14T15:32:20;19.90;1.00
3846;DHT22;1938;50.812;7.738;2023-05-14T15:34:46;20.00;1.00
3846;DHT22;1938;50.812;7.738;2023-05-14T15:37:12;20.10;1.00
3846;DHT22;1938;50.812;7.738;2023-05-14T15:39:37;20.10;1.00
3846;DHT22;1938;50.812;7.738;2023-05-14T15:42:03;20.20;1.00
3846;DHT22;1938;50.812;7.738;2023-05-14T15:44:29;20.40;1.00
3846;DHT22;1938;50.812;7.738;2023-05-14T15:46:54;20.50;1.00
3846;DHT22;1938;50.812;7.738;2023-05-14T15:49:20;20.60;1.00
3846;DHT22;1938;50.812;7.738;2023-05-14T15:51:46;20.60;1.00
3846;DHT22;1938;50.812;7.738;2023-05-14T15:54:12;20.60;1.00
3846;DHT22;1938;50.812;7.738;2023-05-14T15:56:37;20.80;1.00
3846;DHT22;1938;50.812;7.738;2023-05-14T15:59:03;20.80;1.00
3846;DHT22;1938;50.812;7.738;2023-05-14T16:01:28;21.10;1.00
3846;DHT22;1938;50.812;7.738;2023-05-14T16:03:54;21.30;1.00
3846;DHT22;1938;50.812;7.738;2023-05-14T16:06:19;21.40;1.00
3846;DHT22;1938;50.812;7.738;2023-05-14T16:08:45;21.30;1.00
3846;DHT22;1938;50.812;7.738;2023-05-14T16:11:11;21.20;1.00
3846;DHT22;1938;50.812;7.738;2023-05-14T16:13:36;21.00;1.00